Mariner Of The Seas — C6FV9 — position and weather

sailwx.info

Track history (hours):
 
Tides and Currents Weather Stations Pressure Air Temp Water Temp Dewpoint Dewpoint Depression Visibility Wind Speed Wind Dir Waves Ship Positions

Mariner Of The Seas

Operator: Royal Caribbean Cruises Ltd

Last reported at 2018-May-15 13:39 UTC. Time now 2018-May-23 22:38 UTC.
Position N 36°32' W 006°17'.
Warning: this ship's position is 8 days out of date.

Type: Passenger vessel. MMSI: 311493000.

Date/timePositionNaut miles runAvg speedWind from/ knotsBaromVisibWave heightAir tempDewpointWater temp
2018-May-15 13:39N 36°32' W 006°17'0 0.0
2018-May-15 13:30N 36°32' W 006°17'0 0.0
2018-May-15 12:18N 36°32' W 006°17'0 0.0
2018-May-15 09:03N 36°32' W 006°17'0 0.0
2018-May-15 09:00N 36°32' W 006°17'0 0.0
2018-May-15 07:42N 36°32' W 006°17'  
2018-May-09 03:20N 35°58' W 005°35'412.9
2018-May-09 03:00N 35°59' W 005°30'611.9
2018-May-09 02:30N 36°00' W 005°23'511.0
2018-May-09 02:00N 36°01' W 005°17'611.8
2018-May-09 01:30N 36°02' W 005°09'19115.9
2018-May-08 13:30N 36°49' W 001°20'2119.0
2018-May-08 12:23N 37°02' W 000°58'918.9
2018-May-08 11:53N 37°08' W 000°49'719.0
2018-May-08 11:29N 37°12' W 000°42'23919.0
2018-May-07 22:56N 40°40' E 001°50'818.9
2018-May-07 22:30N 40°47' E 001°55'1019.6
2018-May-07 22:00N 40°56' E 002°00'1019.3
2018-May-07 21:30N 41°05' E 002°05'918.6
2018-May-07 21:01N 41°13' E 002°10'613.0
2018-May-07 20:31N 41°20' E 002°10'2 3.8
2018-May-07 20:00N 41°22' E 002°11'0 0.3
2018-May-07 19:29N 41°22' E 002°11'0 0.0
2018-May-07 18:59N 41°22' E 002°11'0 0.0
2018-May-07 18:29N 41°22' E 002°11'0 0.0
2018-May-07 17:59N 41°22' E 002°11'0 0.0
2018-May-07 17:29N 41°22' E 002°11'0 0.0
2018-May-07 16:59N 41°22' E 002°11'0 0.0
2018-May-07 16:29N 41°22' E 002°11'0 0.0
2018-May-07 15:59N 41°22' E 002°11'0 0.0
2018-May-07 15:29N 41°22' E 002°11'0 0.0
2018-May-07 14:59N 41°22' E 002°11'0 0.0
2018-May-07 14:29N 41°22' E 002°11'0 0.0
2018-May-07 13:59N 41°22' E 002°11'0 0.0
2018-May-07 13:29N 41°22' E 002°11'0 0.0
2018-May-07 12:59N 41°22' E 002°11'0 0.0
2018-May-07 12:29N 41°22' E 002°11'0 0.0
2018-May-07 11:56N 41°22' E 002°11'0 0.0
2018-May-07 11:29N 41°22' E 002°11'0 0.0
2018-May-07 10:59N 41°22' E 002°11'0 0.0
2018-May-07 10:29N 41°22' E 002°11'0 0.0
2018-May-07 09:59N 41°22' E 002°11'0 0.0
2018-May-07 09:29N 41°22' E 002°11'0 0.0
2018-May-07 08:59N 41°22' E 002°11'0 0.0
2018-May-07 08:29N 41°22' E 002°11'0 0.0
2018-May-07 07:59N 41°22' E 002°11'0 0.0
2018-May-07 07:29N 41°22' E 002°11'0 0.0
2018-May-07 06:59N 41°22' E 002°11'0 0.0
2018-May-07 06:29N 41°22' E 002°11'0 0.0
2018-May-07 05:59N 41°22' E 002°11'0 0.0
2018-May-07 05:29N 41°22' E 002°11'0 0.0
2018-May-07 04:59N 41°22' E 002°11'0 0.0
2018-May-07 04:29N 41°22' E 002°11'0 0.0
2018-May-07 04:00N 41°22' E 002°11'1 1.7
2018-May-07 03:31N 41°21' E 002°10'4 7.4
2018-May-07 03:00N 41°17' E 002°11'611.6
2018-May-07 02:31N 41°14' E 002°17'713.1
2018-May-07 02:01N 41°11' E 002°25'712.9
2018-May-07 01:30N 41°08' E 002°32'3513.9
2018-May-06 23:00N 40°50' E 003°12'41817.2
2018-May-05 22:47N 37°32' E 011°06'719.0
2018-May-05 22:25N 37°30' E 011°15'819.1
2018-May-05 22:00N 37°28' E 011°24'1019.0
2018-May-05 21:30N 37°25' E 011°36'1418.9
2018-May-05 20:45N 37°20' E 011°52'518.9
2018-May-05 20:29N 37°19' E 011°58'919.1
2018-May-05 20:00N 37°15' E 012°09'919.2
2018-May-05 19:30N 37°11' E 012°20'1018.9
2018-May-05 19:00N 37°07' E 012°31'1021.1
2018-May-05 18:30N 37°04' E 012°43'1221.6
2018-May-05 17:58N 36°59' E 012°56'1021.6
2018-May-05 17:30N 36°54' E 013°08'1121.6
2018-May-05 17:00N 36°50' E 013°20'1121.9
2018-May-05 16:30N 36°45' E 013°32'1121.7
2018-May-05 16:00N 36°40' E 013°45'1121.8
2018-May-05 15:30N 36°35' E 013°56'1121.5
2018-May-05 15:00N 36°31' E 014°09'1121.4
2018-May-05 14:30N 36°28' E 014°21'1121.2
2018-May-05 14:00N 36°24' E 014°34'  
Track history (hours):
 
Tides and Currents Weather Stations Pressure Air Temp Water Temp Dewpoint Dewpoint Depression Visibility Wind Speed Wind Dir Waves Ship Positions

Mariner Of The Seas

Operator: Royal Caribbean Cruises Ltd

Last reported at 2018-May-15 13:39 UTC. Time now 2018-May-23 22:38 UTC.
Position N 36°32' W 006°17'.
Warning: this ship's position is 8 days out of date.

Type: Passenger vessel. MMSI: 311493000.

Date/timePositionNaut miles runAvg speedWind from/ knotsBaromVisibWave heightAir tempDewpointWater temp
2018-May-15 13:39N 36°32' W 006°17'0 0.0
2018-May-15 13:30N 36°32' W 006°17'0 0.0
2018-May-15 12:18N 36°32' W 006°17'0 0.0
2018-May-15 09:03N 36°32' W 006°17'0 0.0
2018-May-15 09:00N 36°32' W 006°17'0 0.0
2018-May-15 07:42N 36°32' W 006°17'  
2018-May-09 03:20N 35°58' W 005°35'412.9
2018-May-09 03:00N 35°59' W 005°30'611.9
2018-May-09 02:30N 36°00' W 005°23'511.0
2018-May-09 02:00N 36°01' W 005°17'611.8
2018-May-09 01:30N 36°02' W 005°09'19115.9
2018-May-08 13:30N 36°49' W 001°20'2119.0
2018-May-08 12:23N 37°02' W 000°58'918.9
2018-May-08 11:53N 37°08' W 000°49'719.0
2018-May-08 11:29N 37°12' W 000°42'23919.0
2018-May-07 22:56N 40°40' E 001°50'818.9
2018-May-07 22:30N 40°47' E 001°55'1019.6
2018-May-07 22:00N 40°56' E 002°00'1019.3
2018-May-07 21:30N 41°05' E 002°05'918.6
2018-May-07 21:01N 41°13' E 002°10'613.0
2018-May-07 20:31N 41°20' E 002°10'2 3.8
2018-May-07 20:00N 41°22' E 002°11'0 0.3
2018-May-07 19:29N 41°22' E 002°11'0 0.0
2018-May-07 18:59N 41°22' E 002°11'0 0.0
2018-May-07 18:29N 41°22' E 002°11'0 0.0
2018-May-07 17:59N 41°22' E 002°11'0 0.0
2018-May-07 17:29N 41°22' E 002°11'0 0.0
2018-May-07 16:59N 41°22' E 002°11'0 0.0
2018-May-07 16:29N 41°22' E 002°11'0 0.0
2018-May-07 15:59N 41°22' E 002°11'0 0.0
2018-May-07 15:29N 41°22' E 002°11'0 0.0
2018-May-07 14:59N 41°22' E 002°11'0 0.0
2018-May-07 14:29N 41°22' E 002°11'0 0.0
2018-May-07 13:59N 41°22' E 002°11'0 0.0
2018-May-07 13:29N 41°22' E 002°11'0 0.0
2018-May-07 12:59N 41°22' E 002°11'0 0.0
2018-May-07 12:29N 41°22' E 002°11'0 0.0
2018-May-07 11:56N 41°22' E 002°11'0 0.0
2018-May-07 11:29N 41°22' E 002°11'0 0.0
2018-May-07 10:59N 41°22' E 002°11'0 0.0
2018-May-07 10:29N 41°22' E 002°11'0 0.0
2018-May-07 09:59N 41°22' E 002°11'0 0.0
2018-May-07 09:29N 41°22' E 002°11'0 0.0
2018-May-07 08:59N 41°22' E 002°11'0 0.0
2018-May-07 08:29N 41°22' E 002°11'0 0.0
2018-May-07 07:59N 41°22' E 002°11'0 0.0
2018-May-07 07:29N 41°22' E 002°11'0 0.0
2018-May-07 06:59N 41°22' E 002°11'0 0.0
2018-May-07 06:29N 41°22' E 002°11'0 0.0
2018-May-07 05:59N 41°22' E 002°11'0 0.0
2018-May-07 05:29N 41°22' E 002°11'0 0.0
2018-May-07 04:59N 41°22' E 002°11'0 0.0
2018-May-07 04:29N 41°22' E 002°11'0 0.0
2018-May-07 04:00N 41°22' E 002°11'1 1.7
2018-May-07 03:31N 41°21' E 002°10'4 7.4
2018-May-07 03:00N 41°17' E 002°11'611.6
2018-May-07 02:31N 41°14' E 002°17'713.1
2018-May-07 02:01N 41°11' E 002°25'712.9
2018-May-07 01:30N 41°08' E 002°32'3513.9
2018-May-06 23:00N 40°50' E 003°12'41817.2
2018-May-05 22:47N 37°32' E 011°06'719.0
2018-May-05 22:25N 37°30' E 011°15'819.1
2018-May-05 22:00N 37°28' E 011°24'1019.0
2018-May-05 21:30N 37°25' E 011°36'1418.9
2018-May-05 20:45N 37°20' E 011°52'518.9
2018-May-05 20:29N 37°19' E 011°58'919.1
2018-May-05 20:00N 37°15' E 012°09'919.2
2018-May-05 19:30N 37°11' E 012°20'1018.9
2018-May-05 19:00N 37°07' E 012°31'1021.1
2018-May-05 18:30N 37°04' E 012°43'1221.6
2018-May-05 17:58N 36°59' E 012°56'1021.6
2018-May-05 17:30N 36°54' E 013°08'1121.6
2018-May-05 17:00N 36°50' E 013°20'1121.9
2018-May-05 16:30N 36°45' E 013°32'1121.7
2018-May-05 16:00N 36°40' E 013°45'1121.8
2018-May-05 15:30N 36°35' E 013°56'1121.5
2018-May-05 15:00N 36°31' E 014°09'1121.4
2018-May-05 14:30N 36°28' E 014°21'1121.2
2018-May-05 14:00N 36°24' E 014°34'  

Dump ship's entire track history